Aérodrome de Toulouse Bourg-Saint-Bernard

LFIT · Upper Garonne, Occitanie, 法国

罗盘
风向 的 风向 的 风向 到 风向 350° Toulouse Bourg St Bernard Airport 12/30
风: 4 kt, 2 beaufort

3 kt

3 kt
改变
0 1.000 2.000 3.000 4.000 5.000
BKN 200 ft
OVC 600 ft
METAR LFCR 290730Z AUTO 35004KT 310V020 9999 BKN002 OVC006 04/04 Q1018 TEMPO 0600 FG VV///

METAR Toulouse Bourg St Bernard Airport - LFIT

Toulouse Bourg St Bernard Airport是,法国中的小机场。 该机场有一条跑道: 12/30. 该领域的国际民航组织标志是LFIT.

这份报告是针对2022年11月29日 08:30, 当地时间在Rodez-Marcillac Airport进行的。

机场观察

风向为350°,速度为4 kt。 风向在310°和020°之间变化。

可见度为10 km 或者更多。

有碎云在200 ft的高度 和 乌云密布在600 ft的高度。 破损或更高的上限为200 ft。

温度为4 °C,阵风为1 °C。 露点为4 °C,相对湿度为100%。 海平面上的气压为1018 hPa (QNH)。

发展趋势

  • 暂时的

    可变方向的风很小或没有。 可见性变为600 m。 重大天气:多雾路段。 垂直能见度.

白天

今天,太阳从08:04升起,在17:18降落。 这适用于Toulouse Bourg St Bernard Airport,世界夏令时可能有所不同。 当地时间与世界标准时间之间的时差为+1 小时。 当前,没有夏令时有效。

公司介绍

我们没有关于这个机场的公司信息。

体会

到Vliegles.nl去找飞行课程,跳伞和其他飞行体验。 浏览页面,了解Toulouse Bourg St Bernard Airport附近所有可用的活动。 你也可以使用搜索功能来寻找你所在地附近的特定飞行课程、跳伞或其他飞行体验。

跑道

Id 标题 侧风 逆风 侧风 %
12/30 121°-301° 3 kt 3 kt 75 %

逆风成分最大的方向会被突出显示,并用于横风计算。 这并不一定意味着这个方向在使用。

乌云

200 ft BKN 碎云
600 ft OVC 乌云密布
0 ft VV 暂时的 垂直能见度

温度 & 天气

温度 4 °C
露点 4 °C
相对湿度 100%
风寒 1 °C
Kp-index 3 (0-9)

白天

日出
08:03
中午
12:38
日落
17:13 (8:08)

小工具

你想在你的网站上有一个关于Toulouse Bourg St Bernard Airport的当前航空天气(METAR)的小部件吗?

显示HTML代码

我们和第三方通过cookies跟踪您在我们网站上的互联网行为。如果你继续,我们认为你同意我们的饼干政策